createdAt,value
2023-05-14T00:00:36.118Z,222.20
2023-05-14T00:01:36.133Z,222.67
2023-05-14T00:02:36.342Z,222.46
2023-05-14T00:03:36.334Z,222.54
2023-05-14T00:04:36.417Z,219.40
2023-05-14T00:05:36.298Z,221.54
2023-05-14T00:06:36.361Z,223.06
2023-05-14T00:07:36.470Z,219.02
2023-05-14T00:08:36.478Z,225.23
2023-05-14T00:09:36.590Z,221.32
2023-05-14T00:10:36.607Z,218.51
2023-05-14T00:11:36.657Z,221.46
2023-05-14T00:12:36.718Z,223.49
2023-05-14T00:13:36.761Z,224.08
2023-05-14T00:14:36.838Z,223.61
2023-05-14T00:15:36.909Z,223.40
2023-05-14T00:16:36.922Z,221.80
2023-05-14T00:17:37.025Z,220.58
2023-05-14T00:18:37.006Z,221.31
2023-05-14T00:19:37.067Z,220.07
2023-05-14T00:20:37.129Z,226.12
2023-05-14T00:21:37.175Z,221.80
2023-05-14T00:22:37.259Z,226.42
2023-05-14T00:23:37.254Z,223.65
2023-05-14T00:24:37.361Z,222.57
2023-05-14T00:25:37.431Z,223.78
2023-05-14T00:26:37.456Z,226.53
2023-05-14T00:27:37.491Z,225.54
2023-05-14T00:28:37.588Z,224.98
2023-05-14T00:29:37.648Z,221.79
2023-05-14T00:30:37.790Z,224.55
2023-05-14T00:31:37.875Z,223.07
2023-05-14T00:32:37.930Z,223.01
2023-05-14T00:33:37.885Z,223.61
2023-05-14T00:34:37.909Z,223.46
2023-05-14T00:35:38.012Z,223.08
2023-05-14T00:36:38.052Z,222.64
2023-05-14T00:37:38.101Z,223.34
2023-05-14T00:38:38.152Z,225.04
2023-05-14T00:39:38.242Z,228.00
2023-05-14T00:40:38.317Z,224.35
2023-05-14T00:41:38.355Z,222.24
2023-05-14T00:42:38.452Z,221.59
2023-05-14T00:43:38.469Z,222.51
2023-05-14T00:44:38.499Z,225.71
2023-05-14T00:45:38.597Z,226.60
2023-05-14T00:46:38.627Z,223.72
2023-05-14T00:47:38.729Z,224.34
2023-05-14T00:48:38.777Z,222.82
2023-05-14T00:49:38.795Z,225.48
2023-05-14T00:50:38.852Z,223.05
2023-05-14T00:51:38.928Z,225.53
2023-05-14T00:52:38.967Z,220.34
2023-05-14T00:53:39.062Z,227.87
2023-05-14T00:54:39.100Z,221.50
2023-05-14T00:55:39.158Z,225.97
2023-05-14T00:56:39.216Z,224.92
2023-05-14T00:57:39.271Z,225.81
2023-05-14T00:58:39.340Z,227.24
2023-05-14T00:59:39.423Z,225.23
2023-05-14T01:00:39.540Z,226.19
2023-05-14T01:01:39.553Z,230.04
2023-05-14T01:02:39.708Z,226.20
2023-05-14T01:03:39.785Z,221.67
2023-05-14T01:04:39.736Z,225.85
2023-05-14T01:05:39.781Z,224.46
2023-05-14T01:06:39.798Z,225.23
2023-05-14T01:07:39.834Z,226.15
2023-05-14T01:08:39.967Z,222.93
2023-05-14T01:09:39.989Z,226.03
2023-05-14T01:10:39.999Z,227.19
2023-05-14T01:11:40.088Z,228.16
2023-05-14T01:12:40.145Z,223.85
2023-05-14T01:13:40.193Z,222.58
2023-05-14T01:14:40.246Z,229.93
2023-05-14T01:15:40.306Z,223.96
2023-05-14T01:16:40.397Z,224.12
2023-05-14T01:17:40.430Z,223.16
2023-05-14T01:18:40.476Z,223.11
2023-05-14T01:19:40.684Z,227.30
2023-05-14T01:20:40.552Z,222.22
2023-05-14T01:21:40.675Z,227.92
2023-05-14T01:22:40.700Z,226.85
2023-05-14T01:23:40.828Z,222.91
2023-05-14T01:24:40.823Z,228.08
2023-05-14T01:25:40.935Z,221.28
2023-05-14T01:26:40.954Z,225.12
2023-05-14T01:27:41.019Z,226.22
2023-05-14T01:28:41.062Z,223.05
2023-05-14T01:29:41.115Z,225.19
2023-05-14T01:30:41.167Z,220.75
2023-05-14T01:31:41.253Z,223.48
2023-05-14T01:32:41.315Z,224.21
2023-05-14T01:33:41.345Z,222.87
2023-05-14T01:34:41.410Z,227.06
2023-05-14T01:35:41.470Z,228.48
2023-05-14T01:36:41.517Z,227.67
2023-05-14T01:37:41.619Z,224.03
2023-05-14T01:38:41.630Z,221.43
2023-05-14T01:39:41.721Z,225.14
2023-05-14T01:40:41.743Z,226.13
2023-05-14T01:41:41.848Z,223.98
2023-05-14T01:42:41.970Z,225.03
2023-05-14T01:43:41.929Z,227.49
2023-05-14T01:44:42.053Z,223.23
2023-05-14T01:45:42.129Z,220.69
2023-05-14T01:46:42.171Z,222.26
2023-05-14T01:47:42.264Z,223.70
2023-05-14T01:48:42.227Z,225.55
2023-05-14T01:49:42.320Z,224.20
2023-05-14T01:50:42.393Z,223.97
2023-05-14T01:51:42.418Z,223.86
2023-05-14T01:52:42.497Z,227.66
2023-05-14T01:53:42.547Z,227.13
2023-05-14T01:54:42.618Z,226.19
2023-05-14T01:55:42.692Z,227.34
2023-05-14T01:56:42.768Z,223.27
2023-05-14T01:57:42.845Z,222.47
2023-05-14T01:58:42.846Z,226.71
2023-05-14T01:59:42.954Z,231.64
2023-05-14T02:00:42.992Z,225.87
2023-05-14T02:01:43.131Z,229.26
2023-05-14T02:02:43.151Z,226.56
2023-05-14T02:03:43.226Z,227.71
2023-05-14T02:04:43.234Z,223.26
2023-05-14T02:05:43.304Z,223.75
2023-05-14T02:06:43.416Z,223.95
2023-05-14T02:07:43.413Z,223.95
2023-05-14T02:08:43.468Z,227.49
2023-05-14T02:09:43.532Z,224.80
2023-05-14T02:10:43.588Z,224.79
2023-05-14T02:11:43.654Z,225.09
2023-05-14T02:12:43.768Z,227.41
2023-05-14T02:13:43.771Z,225.91
2023-05-14T02:14:43.887Z,225.90
2023-05-14T02:15:43.950Z,224.31
2023-05-14T02:16:43.994Z,227.04
2023-05-14T02:17:44.121Z,224.72
2023-05-14T02:18:44.150Z,229.94
2023-05-14T02:19:44.162Z,223.71
2023-05-14T02:20:44.232Z,224.38
2023-05-14T02:21:44.282Z,225.85
2023-05-14T02:22:44.352Z,228.89
2023-05-14T02:23:44.376Z,224.11
2023-05-14T02:24:44.461Z,224.33
2023-05-14T02:25:44.547Z,224.52
2023-05-14T02:26:44.606Z,221.18
2023-05-14T02:27:44.653Z,225.53
2023-05-14T02:28:44.698Z,223.99
2023-05-14T02:29:44.797Z,220.54
2023-05-14T02:30:44.818Z,220.10
2023-05-14T02:31:45.014Z,224.11
2023-05-14T02:32:45.056Z,226.16
2023-05-14T02:33:45.033Z,228.61
2023-05-14T02:34:45.073Z,226.30
2023-05-14T02:35:45.154Z,223.67
2023-05-14T02:36:45.223Z,225.74
2023-05-14T02:37:45.265Z,223.41
2023-05-14T02:38:45.342Z,224.29
2023-05-14T02:39:45.383Z,225.38
2023-05-14T02:40:45.445Z,224.74
2023-05-14T02:41:45.522Z,220.92
2023-05-14T02:42:45.542Z,226.66
2023-05-14T02:43:45.613Z,224.81
2023-05-14T02:44:45.671Z,225.20
2023-05-14T02:45:45.737Z,226.28
2023-05-14T02:46:45.845Z,225.01
2023-05-14T02:47:45.868Z,224.09
2023-05-14T02:48:45.911Z,222.93
2023-05-14T02:49:45.972Z,225.38
2023-05-14T02:50:46.024Z,228.17
2023-05-14T02:51:46.081Z,226.86
2023-05-14T02:52:46.118Z,225.68
2023-05-14T02:53:46.217Z,223.19
2023-05-14T02:54:46.231Z,225.65
2023-05-14T02:55:46.324Z,223.63
2023-05-14T02:56:46.389Z,222.66
2023-05-14T02:57:46.420Z,224.92
2023-05-14T02:58:46.468Z,228.38
2023-05-14T02:59:46.556Z,224.54
2023-05-14T03:00:46.645Z,222.91
2023-05-14T03:01:46.753Z,226.07
2023-05-14T03:02:46.840Z,224.54
2023-05-14T03:03:46.795Z,225.23
2023-05-14T03:04:46.865Z,225.91
2023-05-14T03:05:46.889Z,225.07
2023-05-14T03:06:46.959Z,225.40
2023-05-14T03:07:47.013Z,224.51
2023-05-14T03:08:47.090Z,224.58
2023-05-14T03:09:47.130Z,227.56
2023-05-14T03:10:47.200Z,225.41
2023-05-14T03:11:47.254Z,227.26
2023-05-14T03:12:47.303Z,228.47
2023-05-14T03:13:47.383Z,226.77
2023-05-14T03:14:47.481Z,225.20
2023-05-14T03:15:47.477Z,226.53
2023-05-14T03:16:47.630Z,227.27
2023-05-14T03:17:47.626Z,226.21
2023-05-14T03:18:47.641Z,226.78
2023-05-14T03:19:47.667Z,222.39
2023-05-14T03:20:47.760Z,228.79
2023-05-14T03:21:47.775Z,228.11
2023-05-14T03:22:47.876Z,224.27
2023-05-14T03:23:47.963Z,228.41
2023-05-14T03:24:47.989Z,228.05
2023-05-14T03:25:48.071Z,226.87
2023-05-14T03:26:48.108Z,223.41
2023-05-14T03:27:48.124Z,224.66
2023-05-14T03:28:48.219Z,226.05
2023-05-14T03:29:48.275Z,224.55
2023-05-14T03:30:48.339Z,227.67
2023-05-14T03:31:48.363Z,226.70
2023-05-14T03:32:48.529Z,228.04
2023-05-14T03:33:48.520Z,225.27
2023-05-14T03:34:48.575Z,228.58
2023-05-14T03:35:48.631Z,225.91
2023-05-14T03:36:48.729Z,221.28
2023-05-14T03:37:48.725Z,224.76
2023-05-14T03:38:48.820Z,224.24
2023-05-14T03:39:48.897Z,224.59
2023-05-14T03:40:48.979Z,222.66
2023-05-14T03:41:49.018Z,225.00
2023-05-14T03:42:49.097Z,226.69
2023-05-14T03:43:49.173Z,228.27
2023-05-14T03:44:49.206Z,224.04
2023-05-14T03:45:49.275Z,228.39
2023-05-14T03:46:49.474Z,226.47
2023-05-14T03:47:49.472Z,224.78
2023-05-14T03:48:49.514Z,225.18
2023-05-14T03:49:49.509Z,225.77
2023-05-14T03:50:49.557Z,226.70
2023-05-14T03:51:49.669Z,226.75
2023-05-14T03:52:49.726Z,225.26
2023-05-14T03:53:49.783Z,223.14
2023-05-14T03:54:50.014Z,228.21
2023-05-14T03:55:49.904Z,226.23
2023-05-14T03:56:49.938Z,224.31
2023-05-14T03:57:50.016Z,223.89
2023-05-14T03:58:50.066Z,225.58
2023-05-14T03:59:50.193Z,228.08
2023-05-14T04:00:50.193Z,221.80
2023-05-14T04:01:50.258Z,227.44
2023-05-14T04:02:50.402Z,225.21
2023-05-14T04:03:50.474Z,224.69
2023-05-14T04:04:50.525Z,223.71
2023-05-14T04:05:50.476Z,222.63
2023-05-14T04:06:50.541Z,226.12
2023-05-14T04:07:50.640Z,229.05
2023-05-14T04:08:50.629Z,225.68
2023-05-14T04:09:50.738Z,227.34
2023-05-14T04:10:50.805Z,221.63
2023-05-14T04:11:50.853Z,224.63
2023-05-14T04:12:50.928Z,227.36
2023-05-14T04:13:50.936Z,227.50
2023-05-14T04:14:51.007Z,225.39
2023-05-14T04:15:51.109Z,227.46
2023-05-14T04:16:51.102Z,225.44
2023-05-14T04:17:51.205Z,226.27
2023-05-14T04:18:51.205Z,229.00
2023-05-14T04:19:51.247Z,222.90
2023-05-14T04:20:51.363Z,226.57
2023-05-14T04:21:51.389Z,228.50
2023-05-14T04:22:51.412Z,228.11
2023-05-14T04:23:51.468Z,226.33
2023-05-14T04:24:51.511Z,230.79
2023-05-14T04:25:51.548Z,228.57
2023-05-14T04:26:51.633Z,224.96
2023-05-14T04:27:51.696Z,225.33
2023-05-14T04:28:51.788Z,226.31
2023-05-14T04:29:51.805Z,226.79
2023-05-14T04:30:51.879Z,226.40
2023-05-14T04:31:51.913Z,225.11
2023-05-14T04:32:52.026Z,226.34
2023-05-14T04:33:52.024Z,224.59
2023-05-14T04:34:52.052Z,226.01
2023-05-14T04:35:52.091Z,225.09
2023-05-14T04:36:52.151Z,224.60
2023-05-14T04:37:52.243Z,226.07
2023-05-14T04:38:52.274Z,227.71
2023-05-14T04:39:52.325Z,227.89
2023-05-14T04:40:52.403Z,226.83
2023-05-14T04:41:52.435Z,223.94
2023-05-14T04:42:52.509Z,223.21
2023-05-14T04:43:52.515Z,228.42
2023-05-14T04:44:52.574Z,229.57
2023-05-14T04:45:52.745Z,226.45
2023-05-14T04:46:52.693Z,228.08
2023-05-14T04:47:52.819Z,227.34
2023-05-14T04:48:52.877Z,228.52
2023-05-14T04:49:52.888Z,230.08
2023-05-14T04:50:52.929Z,227.18
2023-05-14T04:51:52.954Z,226.71
2023-05-14T04:52:53.001Z,227.41
2023-05-14T04:53:53.072Z,229.74
2023-05-14T04:54:53.082Z,229.52
2023-05-14T04:55:53.130Z,229.75
2023-05-14T04:56:53.155Z,230.78
2023-05-14T04:57:53.181Z,228.84
2023-05-14T04:58:53.216Z,225.79
2023-05-14T04:59:53.231Z,225.98
2023-05-14T05:00:53.331Z,227.16
2023-05-14T05:01:53.322Z,225.97
2023-05-14T05:02:53.350Z,227.34
2023-05-14T05:03:53.458Z,229.64
2023-05-14T05:04:53.418Z,225.17
2023-05-14T05:05:53.464Z,227.91
2023-05-14T05:06:53.548Z,228.99
2023-05-14T05:07:53.515Z,227.00
2023-05-14T05:08:53.521Z,229.10
2023-05-14T05:09:53.685Z,227.32
2023-05-14T05:10:53.609Z,228.66
2023-05-14T05:11:53.612Z,227.40
2023-05-14T05:12:53.652Z,229.25
2023-05-14T05:13:53.711Z,229.21
2023-05-14T05:14:53.770Z,227.32
2023-05-14T05:15:53.870Z,227.08
2023-05-14T05:16:53.896Z,226.91
2023-05-14T05:17:53.973Z,231.16
2023-05-14T05:18:54.025Z,230.65
2023-05-14T05:19:54.058Z,229.59
2023-05-14T05:20:54.106Z,231.43
2023-05-14T05:21:54.149Z,231.75
2023-05-14T05:22:54.223Z,228.89
2023-05-14T05:23:54.284Z,230.71
2023-05-14T05:24:54.329Z,228.13
2023-05-14T05:25:54.381Z,226.53
2023-05-14T05:26:54.440Z,226.94
2023-05-14T05:27:54.503Z,231.75
2023-05-14T05:28:54.555Z,228.63
2023-05-14T05:29:54.650Z,229.72
2023-05-14T05:30:54.724Z,231.93
2023-05-14T05:31:54.744Z,230.34
2023-05-14T05:32:54.806Z,229.84
2023-05-14T05:33:54.897Z,231.34
2023-05-14T05:34:54.910Z,229.16
2023-05-14T05:35:54.944Z,230.16
2023-05-14T05:36:55.013Z,228.70
2023-05-14T05:37:55.088Z,228.89
2023-05-14T05:38:55.131Z,229.81
2023-05-14T05:39:55.175Z,229.00
2023-05-14T05:40:55.229Z,232.41
2023-05-14T05:41:55.336Z,232.36
2023-05-14T05:42:55.333Z,232.93
2023-05-14T05:43:55.403Z,230.91
2023-05-14T05:44:55.464Z,225.24
2023-05-14T05:45:55.605Z,228.99
2023-05-14T05:46:55.601Z,230.74
2023-05-14T05:47:55.630Z,230.73
2023-05-14T05:48:55.715Z,229.55
2023-05-14T05:49:55.716Z,228.68
2023-05-14T05:50:55.788Z,232.08
2023-05-14T05:51:55.837Z,231.25
2023-05-14T05:52:55.945Z,229.88
2023-05-14T05:53:55.990Z,229.27
2023-05-14T05:54:56.014Z,232.88
2023-05-14T05:55:56.061Z,233.84
2023-05-14T05:56:56.118Z,232.78
2023-05-14T05:57:56.183Z,232.76
2023-05-14T05:58:56.251Z,230.17
2023-05-14T05:59:56.302Z,232.19
2023-05-14T06:00:56.361Z,230.69
2023-05-14T06:01:56.481Z,227.73
2023-05-14T06:02:56.543Z,228.41
2023-05-14T06:03:56.514Z,229.79
2023-05-14T06:04:56.608Z,230.48
2023-05-14T06:05:56.592Z,227.91
2023-05-14T06:06:56.649Z,233.15
2023-05-14T06:07:56.682Z,229.13
2023-05-14T06:08:56.781Z,228.85
2023-05-14T06:09:56.833Z,229.35
2023-05-14T06:10:56.885Z,233.19
2023-05-14T06:11:56.836Z,228.59
2023-05-14T06:12:56.894Z,228.73
2023-05-14T06:13:56.970Z,228.64
2023-05-14T06:14:57.014Z,231.41
2023-05-14T06:15:57.014Z,229.83
2023-05-14T06:16:57.135Z,236.22
2023-05-14T06:17:57.200Z,231.64
2023-05-14T06:18:57.264Z,230.09
2023-05-14T06:19:57.229Z,231.28
2023-05-14T06:20:57.258Z,228.60
2023-05-14T06:21:57.296Z,231.00
2023-05-14T06:22:57.311Z,230.09
2023-05-14T06:23:57.357Z,227.44
2023-05-14T06:24:57.418Z,231.74
2023-05-14T06:25:57.497Z,233.03
2023-05-14T06:26:57.565Z,231.02
2023-05-14T06:27:57.635Z,230.20
2023-05-14T06:28:57.837Z,229.96
2023-05-14T06:29:57.734Z,231.18
2023-05-14T06:30:57.785Z,230.74
2023-05-14T06:31:57.847Z,230.43
2023-05-14T06:32:57.931Z,228.76
2023-05-14T06:33:57.976Z,234.03
2023-05-14T06:34:57.965Z,232.22
2023-05-14T06:35:58.085Z,231.92
2023-05-14T06:36:58.092Z,231.43
2023-05-14T06:37:58.143Z,231.30
2023-05-14T06:38:58.199Z,231.08
2023-05-14T06:39:58.251Z,230.53
2023-05-14T06:40:58.341Z,231.65
2023-05-14T06:41:58.385Z,230.73
2023-05-14T06:42:58.418Z,231.31
2023-05-14T06:43:58.536Z,232.27
2023-05-14T06:44:58.587Z,230.27
2023-05-14T06:45:58.617Z,227.46
2023-05-14T06:46:58.659Z,228.27
2023-05-14T06:47:58.880Z,232.31
2023-05-14T06:48:59.610Z,231.40
2023-05-14T06:49:58.905Z,233.02
2023-05-14T06:50:58.947Z,230.18
2023-05-14T06:51:58.964Z,230.49
2023-05-14T06:52:59.080Z,226.64
2023-05-14T06:53:59.104Z,229.45
2023-05-14T06:54:59.202Z,228.43
2023-05-14T06:55:59.238Z,232.95
2023-05-14T06:56:59.294Z,231.57
2023-05-14T06:57:59.342Z,234.60
2023-05-14T06:58:59.419Z,231.36
2023-05-14T06:59:59.467Z,237.49
2023-05-14T07:00:59.636Z,230.68
2023-05-14T07:01:59.672Z,233.94
2023-05-14T07:02:59.706Z,230.22
2023-05-14T07:03:59.753Z,229.75
2023-05-14T07:04:59.809Z,231.42
2023-05-14T07:05:59.915Z,230.32
2023-05-14T07:06:59.886Z,232.16
2023-05-14T07:07:59.929Z,233.05
2023-05-14T07:09:00.050Z,233.27
2023-05-14T07:10:00.076Z,229.18
2023-05-14T07:11:00.108Z,230.44
2023-05-14T07:12:00.218Z,233.46
2023-05-14T07:13:00.228Z,233.47
2023-05-14T07:14:00.337Z,236.14
2023-05-14T07:15:00.396Z,236.99
2023-05-14T07:16:00.468Z,233.92
2023-05-14T07:17:00.571Z,237.25
2023-05-14T07:18:00.630Z,233.71
2023-05-14T07:19:00.698Z,233.12
2023-05-14T07:20:00.684Z,237.49
2023-05-14T07:21:00.754Z,241.24
2023-05-14T07:22:00.852Z,235.98
2023-05-14T07:23:00.911Z,234.22
2023-05-14T07:24:00.978Z,235.88
2023-05-14T07:25:01.018Z,237.39
2023-05-14T07:26:01.097Z,234.75
2023-05-14T07:27:01.121Z,235.79
2023-05-14T07:28:01.203Z,230.79
2023-05-14T07:29:01.250Z,234.75
2023-05-14T07:30:01.310Z,234.38
2023-05-14T07:31:01.501Z,237.20
2023-05-14T07:32:01.427Z,237.21
2023-05-14T07:33:01.502Z,239.35
2023-05-14T07:34:01.611Z,237.66
2023-05-14T07:35:01.597Z,234.95
2023-05-14T07:36:01.684Z,236.50
2023-05-14T07:37:01.720Z,239.98
2023-05-14T07:38:01.931Z,235.77
2023-05-14T07:39:01.973Z,237.64
2023-05-14T07:40:01.937Z,237.86
2023-05-14T07:41:01.981Z,240.90
2023-05-14T07:42:02.060Z,240.76
2023-05-14T07:43:02.098Z,240.72
2023-05-14T07:44:02.181Z,241.57
2023-05-14T07:45:02.237Z,239.98
2023-05-14T07:46:02.304Z,232.12
2023-05-14T07:47:02.382Z,238.69
2023-05-14T07:48:02.444Z,231.67
2023-05-14T07:49:02.453Z,238.24
2023-05-14T07:50:02.543Z,238.24
2023-05-14T07:51:02.609Z,238.45
2023-05-14T07:52:02.620Z,235.07
2023-05-14T07:53:02.651Z,237.50
2023-05-14T07:54:02.710Z,235.95
2023-05-14T07:55:02.831Z,234.66
2023-05-14T07:56:02.797Z,241.40
2023-05-14T07:57:02.879Z,241.72
2023-05-14T07:58:02.948Z,236.03
2023-05-14T07:59:02.998Z,234.81
2023-05-14T08:00:03.067Z,240.02
2023-05-14T08:01:03.115Z,240.87
2023-05-14T08:02:03.161Z,239.34
2023-05-14T08:03:03.403Z,237.22
2023-05-14T08:04:03.470Z,236.16
2023-05-14T08:05:03.291Z,239.21
2023-05-14T08:06:03.349Z,239.85
2023-05-14T08:07:03.350Z,240.31
2023-05-14T08:08:03.444Z,234.97
2023-05-14T08:09:03.509Z,243.16
2023-05-14T08:10:03.549Z,240.49
2023-05-14T08:11:03.681Z,238.61
2023-05-14T08:12:03.632Z,237.77
2023-05-14T08:13:03.703Z,237.55
2023-05-14T08:14:04.082Z,241.98
2023-05-14T08:15:03.822Z,241.58
2023-05-14T08:16:03.834Z,240.34
2023-05-14T08:17:03.994Z,244.04
2023-05-14T08:18:04.046Z,238.97
2023-05-14T08:19:04.020Z,244.23
2023-05-14T08:20:04.016Z,241.71
2023-05-14T08:21:04.122Z,238.27
2023-05-14T08:22:04.136Z,239.03
2023-05-14T08:23:04.159Z,237.77
2023-05-14T08:24:04.193Z,239.49
2023-05-14T08:25:04.264Z,238.89
2023-05-14T08:26:04.312Z,239.60
2023-05-14T08:27:04.319Z,239.83
2023-05-14T08:28:04.394Z,241.69
2023-05-14T08:29:04.439Z,239.31
2023-05-14T08:30:04.436Z,240.59
2023-05-14T08:31:04.533Z,241.71
2023-05-14T08:32:12.107Z,241.55
2023-05-14T08:33:05.590Z,241.67
2023-05-14T08:34:04.535Z,241.84
2023-05-14T08:35:04.537Z,241.08
2023-05-14T08:36:04.548Z,241.27
2023-05-14T08:37:04.511Z,240.83
2023-05-14T08:38:04.507Z,240.21
2023-05-14T08:39:04.455Z,241.17
2023-05-14T08:40:04.574Z,242.42
2023-05-14T08:41:04.469Z,242.18
2023-05-14T08:42:04.459Z,238.30
2023-05-14T08:43:04.487Z,240.78
2023-05-14T08:44:04.440Z,241.34
2023-05-14T08:45:04.446Z,241.42
2023-05-14T08:46:04.452Z,239.52
2023-05-14T08:47:04.450Z,242.76
2023-05-14T08:48:04.527Z,240.35
2023-05-14T08:49:04.587Z,240.34
2023-05-14T08:50:04.676Z,240.89
2023-05-14T08:51:04.591Z,241.17
2023-05-14T08:52:04.571Z,241.26
2023-05-14T08:53:04.609Z,240.49
2023-05-14T08:54:04.604Z,238.49
2023-05-14T08:55:04.673Z,239.40
2023-05-14T08:56:04.728Z,239.84
2023-05-14T08:57:04.740Z,239.40
2023-05-14T08:58:04.716Z,240.70
2023-05-14T08:59:04.742Z,238.33
2023-05-14T09:00:04.808Z,241.36
2023-05-14T09:01:04.807Z,239.05
2023-05-14T09:02:04.951Z,240.52
2023-05-14T09:03:04.928Z,241.23
2023-05-14T09:04:04.875Z,238.07
2023-05-14T09:05:04.893Z,240.62
2023-05-14T09:06:04.886Z,240.27
2023-05-14T09:07:04.928Z,241.53
2023-05-14T09:08:04.942Z,239.25
2023-05-14T09:09:04.951Z,239.12
2023-05-14T09:10:04.945Z,239.40
2023-05-14T09:11:04.992Z,240.74
2023-05-14T09:12:05.014Z,241.33
2023-05-14T09:13:05.034Z,240.53
2023-05-14T09:14:05.045Z,237.30
2023-05-14T09:15:05.132Z,238.70
2023-05-14T09:16:05.111Z,239.53
2023-05-14T09:17:05.078Z,239.01
2023-05-14T09:18:05.194Z,240.07
2023-05-14T09:19:05.159Z,238.38
2023-05-14T09:20:05.137Z,235.77
2023-05-14T09:21:05.152Z,240.27
2023-05-14T09:22:05.170Z,239.25
2023-05-14T09:23:05.209Z,239.97
2023-05-14T09:24:05.220Z,237.80
2023-05-14T09:25:05.238Z,238.75
2023-05-14T09:26:05.286Z,238.48
2023-05-14T09:27:05.275Z,235.90
2023-05-14T09:28:05.277Z,238.74
2023-05-14T09:29:05.311Z,240.13
2023-05-14T09:30:05.317Z,238.28
2023-05-14T09:31:05.380Z,239.02
2023-05-14T09:32:05.493Z,239.53
2023-05-14T09:33:05.412Z,236.20
2023-05-14T09:34:05.392Z,241.27
2023-05-14T09:35:05.394Z,239.00
2023-05-14T09:36:05.402Z,238.47
2023-05-14T09:37:05.400Z,237.69
2023-05-14T09:38:05.404Z,238.97
2023-05-14T09:39:05.472Z,237.04
2023-05-14T09:40:05.475Z,233.40
2023-05-14T09:41:05.480Z,235.76
2023-05-14T09:42:05.476Z,234.82
2023-05-14T09:43:05.513Z,235.00
2023-05-14T09:44:06.731Z,235.39
2023-05-14T09:45:05.536Z,234.85
2023-05-14T09:46:05.570Z,236.19
2023-05-14T09:47:05.540Z,236.14
2023-05-14T09:48:05.701Z,238.22
2023-05-14T09:49:05.595Z,238.43
2023-05-14T09:50:05.603Z,241.06
2023-05-14T09:51:05.613Z,239.29
2023-05-14T09:52:05.610Z,240.87
2023-05-14T09:53:05.609Z,238.74
2023-05-14T09:54:05.624Z,241.88
2023-05-14T09:55:05.642Z,238.26
2023-05-14T09:56:05.638Z,238.40
2023-05-14T09:57:05.651Z,238.92
2023-05-14T09:58:05.716Z,238.13
2023-05-14T09:59:05.684Z,239.47
2023-05-14T10:00:05.744Z,238.36
2023-05-14T10:01:05.720Z,236.77
2023-05-14T10:02:05.682Z,238.99
2023-05-14T10:03:05.743Z,237.23
2023-05-14T10:04:05.739Z,239.55
2023-05-14T10:05:05.724Z,240.66
2023-05-14T10:06:05.674Z,239.33
2023-05-14T10:07:05.718Z,239.62
2023-05-14T10:08:05.746Z,241.47
2023-05-14T10:09:05.738Z,238.85
2023-05-14T10:10:05.703Z,240.41
2023-05-14T10:11:05.706Z,239.63
2023-05-14T10:12:05.814Z,239.95
2023-05-14T10:13:05.666Z,240.48
2023-05-14T10:14:05.723Z,237.68
2023-05-14T10:15:05.728Z,238.44
2023-05-14T10:16:05.740Z,242.22
2023-05-14T10:17:05.711Z,239.64
2023-05-14T10:18:05.753Z,237.87
2023-05-14T10:19:05.777Z,239.39
2023-05-14T10:20:05.699Z,237.23
2023-05-14T10:21:05.704Z,239.60
2023-05-14T10:22:05.670Z,238.76
2023-05-14T10:23:05.686Z,241.97
2023-05-14T10:24:05.640Z,238.86
2023-05-14T10:25:05.702Z,238.41
2023-05-14T10:26:05.668Z,240.67
2023-05-14T10:27:05.702Z,242.08
2023-05-14T10:28:05.708Z,237.71
2023-05-14T10:29:05.718Z,237.44
2023-05-14T10:30:05.675Z,237.41
2023-05-14T10:31:05.668Z,236.12
2023-05-14T10:32:05.678Z,239.64
2023-05-14T10:33:05.683Z,239.02
2023-05-14T10:34:05.656Z,235.41
2023-05-14T10:35:05.660Z,237.24
2023-05-14T10:36:05.654Z,239.77
2023-05-14T10:37:05.675Z,239.85
2023-05-14T10:38:05.690Z,238.95
2023-05-14T10:39:05.671Z,239.14
2023-05-14T10:40:05.645Z,239.14
2023-05-14T10:41:05.650Z,238.42
2023-05-14T10:42:05.631Z,238.86
2023-05-14T10:43:05.657Z,236.21
2023-05-14T10:44:05.645Z,238.05
2023-05-14T10:45:05.629Z,236.64
2023-05-14T10:46:05.691Z,239.84
2023-05-14T10:47:05.749Z,235.90
2023-05-14T10:48:05.710Z,237.43
2023-05-14T10:49:05.657Z,236.05
2023-05-14T10:50:05.595Z,235.19
2023-05-14T10:51:05.658Z,238.54
2023-05-14T10:52:05.595Z,237.44
2023-05-14T10:53:05.595Z,239.35
2023-05-14T10:54:05.586Z,238.20
2023-05-14T10:55:05.584Z,237.24
2023-05-14T10:56:05.559Z,234.79
2023-05-14T10:57:05.598Z,236.63
2023-05-14T10:58:05.576Z,235.85
2023-05-14T10:59:05.554Z,241.36
2023-05-14T11:00:05.551Z,236.44
2023-05-14T11:01:05.562Z,236.47
2023-05-14T11:02:05.640Z,239.02
2023-05-14T11:03:05.687Z,237.13
2023-05-14T11:04:05.598Z,238.51
2023-05-14T11:05:05.590Z,237.38
2023-05-14T11:06:05.721Z,237.35
2023-05-14T11:07:05.598Z,236.69
2023-05-14T11:08:05.608Z,239.05
2023-05-14T11:09:05.584Z,238.08
2023-05-14T11:10:05.609Z,244.21
2023-05-14T11:11:05.709Z,237.45
2023-05-14T11:12:05.660Z,239.60
2023-05-14T11:13:05.620Z,238.86
2023-05-14T11:14:05.625Z,240.92
2023-05-14T11:15:05.615Z,240.08
2023-05-14T11:16:21.181Z,237.56
2023-05-14T11:17:06.720Z,237.79
2023-05-14T11:18:05.714Z,238.29
2023-05-14T11:19:05.698Z,239.58
2023-05-14T11:20:05.620Z,238.21
2023-05-14T11:21:05.641Z,239.86
2023-05-14T11:22:05.629Z,239.68
2023-05-14T11:23:05.590Z,241.15
2023-05-14T11:24:05.627Z,240.63
2023-05-14T11:25:05.580Z,240.84
2023-05-14T11:26:05.569Z,239.68
2023-05-14T11:27:05.532Z,239.92
2023-05-14T11:28:05.545Z,239.77
2023-05-14T11:29:05.552Z,239.45
2023-05-14T11:30:05.581Z,238.42
2023-05-14T11:31:05.543Z,238.97
2023-05-14T11:32:05.610Z,239.52
2023-05-14T11:33:05.580Z,242.19
2023-05-14T11:34:05.657Z,242.40
2023-05-14T11:35:05.487Z,238.08
2023-05-14T11:36:05.499Z,238.85
2023-05-14T11:37:05.520Z,240.56
2023-05-14T11:38:06.849Z,240.72
2023-05-14T11:39:05.490Z,240.41
2023-05-14T11:40:05.470Z,238.42
2023-05-14T11:41:05.503Z,240.95
2023-05-14T11:42:05.431Z,238.67
2023-05-14T11:43:05.457Z,241.41
2023-05-14T11:44:06.784Z,238.37
2023-05-14T11:45:05.428Z,238.58
2023-05-14T11:46:05.490Z,238.92
2023-05-14T11:47:05.443Z,239.45
2023-05-14T11:48:05.505Z,241.92
2023-05-14T11:49:05.403Z,239.66
2023-05-14T11:50:07.302Z,242.08
2023-05-14T11:51:05.397Z,242.34
2023-05-14T11:52:05.379Z,243.01
2023-05-14T11:53:05.376Z,243.83
2023-05-14T11:54:05.367Z,242.66
2023-05-14T11:55:05.391Z,241.55
2023-05-14T11:56:06.599Z,241.77
2023-05-14T11:57:05.351Z,241.97
2023-05-14T11:58:05.339Z,242.20
2023-05-14T11:59:05.346Z,242.17
2023-05-14T12:00:05.373Z,242.46
2023-05-14T12:01:05.292Z,241.81
2023-05-14T12:02:05.344Z,242.42
2023-05-14T12:03:05.391Z,241.63
2023-05-14T12:04:05.413Z,243.09
2023-05-14T12:05:05.288Z,242.53
2023-05-14T12:06:05.297Z,240.24
2023-05-14T12:07:05.270Z,241.17
2023-05-14T12:08:05.309Z,240.54
2023-05-14T12:09:05.293Z,241.98
2023-05-14T12:10:05.303Z,238.34
2023-05-14T12:11:05.301Z,242.38
2023-05-14T12:12:05.238Z,241.93
2023-05-14T12:13:05.299Z,242.56
2023-05-14T12:14:05.235Z,241.07
2023-05-14T12:15:05.253Z,240.84
2023-05-14T12:16:05.219Z,242.58
2023-05-14T12:17:05.186Z,243.20
2023-05-14T12:18:13.659Z,243.56
2023-05-14T12:19:06.287Z,243.99
2023-05-14T12:20:05.216Z,244.53
2023-05-14T12:21:05.181Z,245.08
2023-05-14T12:22:05.217Z,243.76
2023-05-14T12:23:05.180Z,243.80
2023-05-14T12:24:05.175Z,244.09
2023-05-14T12:25:05.130Z,241.60
2023-05-14T12:26:05.112Z,244.19
2023-05-14T12:27:05.123Z,241.55
2023-05-14T12:28:05.149Z,243.74
2023-05-14T12:29:05.101Z,241.32